Terminal Aerodrome Forecast
Issued by NWS

Home | Current Version | Previous Version | Text Only | Print | Product List | Glossary On
Versions: 1 2 3 4 5 6 7 8 9 10 11 12 13 14 15 16 17 18 19 20
000
FTUS43 KICT 171400 AAB
TAFRSL
TAF AMD
KRSL 171441Z 1715/1812 23007KT P6SM SCT020
      TEMPO 1715/1717 2SM BR SCT005
     FM171900 09007KT P6SM SCT035=

USA.gov is the U.S. government's official web portal to all federal, state and local government web resources and services.